createdAt,value
2024-03-28T00:00:05.978Z,523.00
2024-03-28T00:01:05.989Z,524.00
2024-03-28T00:02:05.983Z,524.00
2024-03-28T00:03:05.979Z,524.00
2024-03-28T00:04:05.973Z,524.00
2024-03-28T00:05:05.974Z,521.00
2024-03-28T00:06:05.971Z,521.00
2024-03-28T00:07:05.978Z,524.00
2024-03-28T00:08:05.964Z,527.00
2024-03-28T00:09:05.963Z,527.00
2024-03-28T00:10:05.963Z,525.00
2024-03-28T00:11:05.959Z,525.00
2024-03-28T00:12:05.967Z,524.00
2024-03-28T00:13:05.950Z,522.00
2024-03-28T00:14:05.958Z,523.00
2024-03-28T00:15:05.947Z,525.00
2024-03-28T00:16:05.955Z,526.00
2024-03-28T00:17:05.952Z,526.00
2024-03-28T00:18:05.950Z,526.00
2024-03-28T00:19:08.218Z,527.00
2024-03-28T00:20:05.941Z,526.00
2024-03-28T00:21:05.969Z,527.00
2024-03-28T00:22:05.997Z,524.00
2024-03-28T00:23:06.029Z,521.00
2024-03-28T00:24:06.064Z,522.00
2024-03-28T00:25:06.102Z,520.00
2024-03-28T00:26:06.134Z,522.00
2024-03-28T00:27:06.174Z,525.00
2024-03-28T00:28:06.196Z,528.00
2024-03-28T00:29:06.249Z,528.00
2024-03-28T00:30:06.258Z,528.00
2024-03-28T00:31:06.289Z,527.00
2024-03-28T00:32:06.325Z,526.00
2024-03-28T00:33:06.347Z,524.00
2024-03-28T00:34:06.382Z,523.00
2024-03-28T00:35:06.414Z,523.00
2024-03-28T00:36:06.436Z,521.00
2024-03-28T00:37:06.473Z,522.00
2024-03-28T00:38:06.497Z,523.00
2024-03-28T00:39:06.537Z,528.00
2024-03-28T00:40:06.561Z,529.00
2024-03-28T00:41:06.605Z,527.00
2024-03-28T00:42:06.613Z,524.00
2024-03-28T00:43:06.646Z,526.00
2024-03-28T00:44:06.676Z,525.00
2024-03-28T00:45:06.718Z,528.00
2024-03-28T00:46:06.731Z,529.00
2024-03-28T00:47:06.743Z,527.00
2024-03-28T00:48:06.766Z,527.00
2024-03-28T00:49:06.799Z,524.00
2024-03-28T00:50:06.834Z,524.00
2024-03-28T00:51:06.945Z,526.00
2024-03-28T00:52:06.895Z,525.00
2024-03-28T00:53:06.908Z,527.00
2024-03-28T00:54:06.940Z,528.00
2024-03-28T00:55:06.972Z,531.00
2024-03-28T00:56:07.004Z,529.00
2024-03-28T00:57:07.039Z,528.00
2024-03-28T00:58:07.093Z,529.00
2024-03-28T00:59:07.079Z,531.00
2024-03-28T01:00:07.128Z,528.00
2024-03-28T01:01:07.148Z,525.00
2024-03-28T01:02:07.175Z,524.00
2024-03-28T01:03:07.202Z,524.00
2024-03-28T01:04:07.228Z,526.00
2024-03-28T01:05:07.260Z,524.00
2024-03-28T01:06:07.294Z,522.00
2024-03-28T01:07:07.331Z,521.00
2024-03-28T01:08:07.361Z,522.00
2024-03-28T01:09:07.387Z,522.00
2024-03-28T01:10:07.413Z,522.00
2024-03-28T01:11:07.450Z,522.00
2024-03-28T01:12:07.501Z,519.00
2024-03-28T01:13:07.515Z,518.00
2024-03-28T01:14:07.535Z,520.00
2024-03-28T01:15:07.575Z,521.00
2024-03-28T01:16:07.591Z,523.00
2024-03-28T01:17:07.650Z,521.00
2024-03-28T01:18:09.658Z,521.00
2024-03-28T01:19:07.913Z,520.00
2024-03-28T01:20:07.663Z,517.00
2024-03-28T01:21:07.667Z,517.00
2024-03-28T01:22:07.694Z,520.00
2024-03-28T01:23:07.672Z,520.00
2024-03-28T01:24:07.666Z,518.00
2024-03-28T01:25:07.655Z,519.00
2024-03-28T01:26:07.668Z,519.00
2024-03-28T01:27:07.652Z,520.00
2024-03-28T01:28:10.232Z,520.00
2024-03-28T01:29:07.630Z,518.00
2024-03-28T01:30:07.643Z,516.00
2024-03-28T01:31:07.624Z,518.00
2024-03-28T01:32:07.633Z,517.00
2024-03-28T01:33:07.617Z,518.00
2024-03-28T01:34:07.616Z,519.00
2024-03-28T01:35:07.594Z,521.00
2024-03-28T01:36:07.601Z,521.00
2024-03-28T01:37:10.215Z,519.00
2024-03-28T01:38:07.590Z,519.00
2024-03-28T01:39:07.590Z,518.00
2024-03-28T01:40:07.577Z,519.00
2024-03-28T01:41:07.571Z,522.00
2024-03-28T01:42:07.571Z,523.00
2024-03-28T01:43:07.562Z,525.00
2024-03-28T01:44:07.564Z,523.00
2024-03-28T01:45:07.563Z,523.00
2024-03-28T01:46:07.657Z,524.00
2024-03-28T01:47:25.824Z,526.00
2024-03-28T01:48:08.758Z,527.00
2024-03-28T01:49:07.571Z,527.00
2024-03-28T01:50:07.569Z,525.00
2024-03-28T01:51:07.572Z,525.00
2024-03-28T01:52:07.574Z,526.00
2024-03-28T01:53:07.576Z,526.00
2024-03-28T01:54:07.580Z,528.00
2024-03-28T01:55:07.571Z,531.00
2024-03-28T01:56:07.570Z,532.00
2024-03-28T01:57:07.611Z,530.00
2024-03-28T01:58:07.565Z,528.00
2024-03-28T01:59:07.571Z,526.00
2024-03-28T02:00:07.606Z,526.00
2024-03-28T02:01:07.562Z,525.00
2024-03-28T02:02:07.638Z,525.00
2024-03-28T02:03:07.575Z,524.00
2024-03-28T02:04:07.576Z,526.00
2024-03-28T02:05:07.584Z,527.00
2024-03-28T02:06:07.581Z,528.00
2024-03-28T02:07:07.591Z,527.00
2024-03-28T02:08:07.780Z,525.00
2024-03-28T02:09:07.644Z,523.00
2024-03-28T02:10:07.676Z,523.00
2024-03-28T02:11:07.693Z,524.00
2024-03-28T02:12:09.907Z,523.00
2024-03-28T02:13:07.713Z,525.00
2024-03-28T02:14:07.733Z,526.00
2024-03-28T02:15:07.721Z,524.00
2024-03-28T02:16:07.713Z,523.00
2024-03-28T02:17:07.711Z,522.00
2024-03-28T02:18:07.707Z,522.00
2024-03-28T02:19:07.713Z,523.00
2024-03-28T02:20:07.702Z,524.00
2024-03-28T02:21:07.689Z,522.00
2024-03-28T02:22:07.709Z,522.00
2024-03-28T02:23:07.680Z,517.00
2024-03-28T02:24:07.694Z,515.00
2024-03-28T02:25:07.677Z,517.00
2024-03-28T02:26:07.683Z,518.00
2024-03-28T02:27:07.685Z,517.00
2024-03-28T02:28:07.681Z,518.00
2024-03-28T02:29:07.698Z,520.00
2024-03-28T02:30:07.707Z,519.00
2024-03-28T02:31:07.670Z,517.00
2024-03-28T02:32:07.676Z,514.00
2024-03-28T02:33:07.664Z,511.00
2024-03-28T02:34:07.666Z,510.00
2024-03-28T02:35:07.674Z,515.00
2024-03-28T02:36:07.658Z,515.00
2024-03-28T02:37:07.667Z,515.00
2024-03-28T02:38:07.664Z,513.00
2024-03-28T02:39:07.660Z,514.00
2024-03-28T02:40:07.651Z,513.00
2024-03-28T02:41:07.684Z,514.00
2024-03-28T02:42:07.750Z,514.00
2024-03-28T02:43:07.679Z,512.00
2024-03-28T02:44:07.663Z,512.00
2024-03-28T02:45:07.666Z,512.00
2024-03-28T02:46:07.667Z,512.00
2024-03-28T02:47:07.678Z,513.00
2024-03-28T02:48:07.667Z,513.00
2024-03-28T02:49:07.662Z,511.00
2024-03-28T02:50:07.659Z,513.00
2024-03-28T02:51:07.652Z,515.00
2024-03-28T02:52:07.654Z,516.00
2024-03-28T02:53:07.653Z,516.00
2024-03-28T02:54:07.636Z,518.00
2024-03-28T02:55:07.630Z,517.00
2024-03-28T02:56:07.629Z,516.00
2024-03-28T02:57:07.643Z,516.00
2024-03-28T02:58:07.632Z,515.00
2024-03-28T02:59:07.635Z,515.00
2024-03-28T03:00:07.642Z,515.00
2024-03-28T03:01:07.635Z,515.00
2024-03-28T03:02:07.645Z,517.00
2024-03-28T03:03:07.628Z,518.00
2024-03-28T03:04:07.644Z,517.00
2024-03-28T03:05:07.624Z,516.00
2024-03-28T03:06:07.652Z,516.00
2024-03-28T03:07:07.644Z,518.00
2024-03-28T03:08:07.645Z,517.00
2024-03-28T03:09:07.629Z,517.00
2024-03-28T03:10:07.653Z,516.00
2024-03-28T03:11:07.651Z,515.00
2024-03-28T03:12:07.659Z,516.00
2024-03-28T03:13:07.654Z,516.00
2024-03-28T03:14:07.650Z,517.00
2024-03-28T03:15:07.656Z,517.00
2024-03-28T03:16:07.683Z,515.00
2024-03-28T03:17:07.659Z,516.00
2024-03-28T03:18:07.663Z,520.00
2024-03-28T03:19:07.665Z,522.00
2024-03-28T03:20:07.659Z,523.00
2024-03-28T03:21:07.661Z,523.00
2024-03-28T03:22:07.665Z,523.00
2024-03-28T03:23:07.661Z,523.00
2024-03-28T03:24:07.675Z,521.00
2024-03-28T03:25:07.685Z,520.00
2024-03-28T03:26:07.720Z,519.00
2024-03-28T03:27:07.756Z,521.00
2024-03-28T03:28:07.792Z,524.00
2024-03-28T03:29:07.847Z,521.00
2024-03-28T03:30:07.881Z,519.00
2024-03-28T03:31:07.912Z,520.00
2024-03-28T03:32:07.955Z,518.00
2024-03-28T03:33:07.987Z,517.00
2024-03-28T03:34:08.024Z,518.00
2024-03-28T03:35:08.070Z,519.00
2024-03-28T03:36:08.111Z,518.00
2024-03-28T03:37:08.147Z,518.00
2024-03-28T03:38:08.185Z,515.00
2024-03-28T03:39:08.280Z,517.00
2024-03-28T03:40:08.274Z,515.00
2024-03-28T03:41:08.290Z,517.00
2024-03-28T03:42:08.331Z,514.00
2024-03-28T03:43:08.356Z,514.00
2024-03-28T03:44:08.399Z,512.00
2024-03-28T03:45:08.439Z,516.00
2024-03-28T03:46:08.467Z,520.00
2024-03-28T03:47:08.508Z,521.00
2024-03-28T03:48:08.536Z,521.00
2024-03-28T03:49:08.578Z,521.00
2024-03-28T03:50:08.615Z,519.00
2024-03-28T03:51:08.644Z,520.00
2024-03-28T03:52:08.693Z,520.00
2024-03-28T03:53:08.752Z,522.00
2024-03-28T03:54:08.766Z,521.00
2024-03-28T03:55:08.782Z,519.00
2024-03-28T03:56:08.818Z,518.00
2024-03-28T03:57:08.859Z,517.00
2024-03-28T03:58:08.892Z,519.00
2024-03-28T03:59:08.911Z,519.00
2024-03-28T04:00:08.960Z,520.00
2024-03-28T04:01:08.971Z,517.00
2024-03-28T04:02:09.024Z,515.00
2024-03-28T04:03:09.050Z,518.00
2024-03-28T04:04:09.087Z,516.00
2024-03-28T04:05:09.116Z,516.00
2024-03-28T04:06:09.151Z,517.00
2024-03-28T04:07:09.181Z,516.00
2024-03-28T04:08:09.220Z,518.00
2024-03-28T04:09:09.244Z,516.00
2024-03-28T04:10:09.290Z,517.00
2024-03-28T04:11:09.311Z,516.00
2024-03-28T04:12:09.368Z,517.00
2024-03-28T04:13:09.397Z,516.00
2024-03-28T04:14:09.422Z,517.00
2024-03-28T04:15:09.459Z,520.00
2024-03-28T04:16:09.496Z,522.00
2024-03-28T04:17:09.534Z,523.00
2024-03-28T04:18:09.582Z,523.00
2024-03-28T04:19:09.605Z,520.00
2024-03-28T04:20:09.647Z,520.00
2024-03-28T04:21:09.683Z,519.00
2024-03-28T04:22:09.725Z,519.00
2024-03-28T04:23:09.755Z,518.00
2024-03-28T04:24:09.821Z,518.00
2024-03-28T04:25:09.838Z,516.00
2024-03-28T04:26:09.889Z,517.00
2024-03-28T04:27:09.916Z,516.00
2024-03-28T04:28:09.949Z,518.00
2024-03-28T04:29:17.196Z,525.00
2024-03-28T04:30:17.180Z,523.00
2024-03-28T04:31:24.566Z,522.00
2024-03-28T04:32:24.585Z,521.00
2024-03-28T04:33:24.550Z,522.00
2024-03-28T04:34:24.652Z,522.00
2024-03-28T04:35:24.589Z,521.00
2024-03-28T04:36:24.588Z,522.00
2024-03-28T04:37:24.603Z,523.00
2024-03-28T04:38:24.579Z,520.00
2024-03-28T04:39:24.594Z,517.00
2024-03-28T04:40:24.648Z,517.00
2024-03-28T04:41:24.592Z,518.00
2024-03-28T04:42:24.577Z,519.00
2024-03-28T04:43:24.600Z,517.00
2024-03-28T04:44:24.586Z,519.00
2024-03-28T04:45:24.582Z,519.00
2024-03-28T04:46:24.622Z,520.00
2024-03-28T04:47:24.598Z,519.00
2024-03-28T04:48:24.649Z,519.00
2024-03-28T04:49:24.621Z,519.00
2024-03-28T04:50:24.618Z,519.00
2024-03-28T04:51:24.625Z,521.00
2024-03-28T04:52:24.692Z,519.00
2024-03-28T04:53:24.631Z,517.00
2024-03-28T04:54:24.639Z,518.00
2024-03-28T04:55:27.719Z,517.00
2024-03-28T04:56:24.646Z,518.00
2024-03-28T04:57:24.654Z,517.00
2024-03-28T04:58:24.700Z,519.00
2024-03-28T04:59:24.657Z,520.00
2024-03-28T05:00:24.703Z,520.00
2024-03-28T05:01:24.713Z,519.00
2024-03-28T05:02:24.688Z,517.00
2024-03-28T05:03:24.686Z,517.00
2024-03-28T05:04:24.705Z,518.00
2024-03-28T05:05:24.710Z,518.00
2024-03-28T05:06:24.702Z,518.00
2024-03-28T05:07:24.795Z,518.00
2024-03-28T05:08:24.724Z,518.00
2024-03-28T05:09:24.728Z,516.00
2024-03-28T05:10:24.793Z,516.00
2024-03-28T05:11:25.852Z,515.00
2024-03-28T05:12:24.736Z,514.00
2024-03-28T05:13:24.757Z,514.00
2024-03-28T05:14:24.747Z,516.00
2024-03-28T05:15:24.746Z,517.00
2024-03-28T05:16:24.792Z,516.00
2024-03-28T05:17:24.784Z,517.00
2024-03-28T05:18:24.761Z,517.00
2024-03-28T05:19:24.792Z,516.00
2024-03-28T05:20:24.774Z,515.00
2024-03-28T05:21:24.771Z,514.00
2024-03-28T05:22:24.806Z,513.00
2024-03-28T05:23:24.770Z,513.00
2024-03-28T05:24:24.791Z,513.00
2024-03-28T05:25:24.844Z,512.00
2024-03-28T05:26:24.772Z,512.00
2024-03-28T05:27:27.479Z,513.00
2024-03-28T05:28:24.794Z,514.00
2024-03-28T05:29:24.817Z,511.00
2024-03-28T05:30:24.806Z,511.00
2024-03-28T05:31:24.829Z,512.00
2024-03-28T05:32:24.806Z,510.00
2024-03-28T05:33:24.814Z,510.00
2024-03-28T05:34:24.827Z,512.00
2024-03-28T05:35:24.792Z,512.00
2024-03-28T05:36:24.785Z,512.00
2024-03-28T05:37:24.818Z,513.00
2024-03-28T05:38:24.803Z,511.00
2024-03-28T05:39:24.802Z,512.00
2024-03-28T05:40:24.837Z,513.00
2024-03-28T05:41:24.788Z,513.00
2024-03-28T05:42:24.798Z,514.00
2024-03-28T05:43:24.822Z,516.00
2024-03-28T05:44:24.807Z,518.00
2024-03-28T05:45:24.801Z,516.00
2024-03-28T05:46:24.819Z,515.00
2024-03-28T05:47:24.832Z,515.00
2024-03-28T05:48:24.841Z,513.00
2024-03-28T05:49:24.885Z,512.00
2024-03-28T05:50:24.857Z,514.00
2024-03-28T05:51:24.839Z,511.00
2024-03-28T05:52:24.892Z,509.00
2024-03-28T05:53:24.847Z,510.00
2024-03-28T05:54:24.848Z,512.00
2024-03-28T05:55:24.851Z,516.00
2024-03-28T05:56:24.853Z,515.00
2024-03-28T05:57:24.858Z,515.00
2024-03-28T05:58:24.876Z,514.00
2024-03-28T05:59:24.850Z,513.00
2024-03-28T06:00:24.865Z,513.00
2024-03-28T06:01:24.886Z,514.00
2024-03-28T06:02:24.861Z,514.00
2024-03-28T06:03:27.403Z,512.00
2024-03-28T06:04:24.875Z,514.00
2024-03-28T06:05:24.862Z,513.00
2024-03-28T06:06:24.865Z,512.00
2024-03-28T06:07:24.869Z,513.00
2024-03-28T06:08:24.865Z,515.00
2024-03-28T06:09:24.858Z,515.00
2024-03-28T06:10:24.890Z,515.00
2024-03-28T06:11:24.859Z,515.00
2024-03-28T06:12:24.866Z,513.00
2024-03-28T06:13:24.878Z,513.00
2024-03-28T06:14:24.844Z,514.00
2024-03-28T06:15:24.848Z,518.00
2024-03-28T06:16:24.854Z,519.00
2024-03-28T06:17:24.832Z,520.00
2024-03-28T06:18:24.876Z,518.00
2024-03-28T06:19:24.820Z,515.00
2024-03-28T06:20:24.813Z,516.00
2024-03-28T06:21:24.817Z,516.00
2024-03-28T06:22:27.064Z,517.00
2024-03-28T06:23:24.803Z,516.00
2024-03-28T06:24:24.797Z,518.00
2024-03-28T06:25:24.827Z,520.00
2024-03-28T06:26:24.855Z,521.00
2024-03-28T06:27:24.898Z,521.00
2024-03-28T06:28:24.942Z,522.00
2024-03-28T06:29:24.956Z,520.00
2024-03-28T06:30:25.020Z,519.00
2024-03-28T06:31:25.096Z,521.00
2024-03-28T06:32:25.133Z,521.00
2024-03-28T06:33:25.117Z,520.00
2024-03-28T06:34:25.162Z,520.00
2024-03-28T06:35:25.179Z,518.00
2024-03-28T06:36:25.222Z,517.00
2024-03-28T06:37:25.213Z,519.00
2024-03-28T06:38:25.213Z,517.00
2024-03-28T06:39:25.210Z,518.00
2024-03-28T06:40:25.216Z,517.00
2024-03-28T06:41:25.205Z,516.00
2024-03-28T06:42:25.197Z,515.00
2024-03-28T06:43:25.202Z,515.00
2024-03-28T06:44:25.173Z,515.00
2024-03-28T06:45:25.165Z,514.00
2024-03-28T06:46:25.196Z,516.00
2024-03-28T06:47:25.163Z,518.00
2024-03-28T06:48:25.211Z,517.00
2024-03-28T06:49:25.159Z,516.00
2024-03-28T06:50:25.185Z,515.00
2024-03-28T06:51:25.243Z,516.00
2024-03-28T06:52:25.326Z,516.00
2024-03-28T06:53:25.302Z,518.00
2024-03-28T06:54:25.343Z,521.00
2024-03-28T06:55:25.405Z,521.00
2024-03-28T06:56:25.411Z,521.00
2024-03-28T06:57:25.454Z,520.00
2024-03-28T06:58:25.537Z,520.00
2024-03-28T06:59:25.522Z,520.00
2024-03-28T07:00:25.563Z,521.00
2024-03-28T07:01:25.673Z,522.00
2024-03-28T07:02:25.634Z,524.00
2024-03-28T07:03:25.674Z,524.00
2024-03-28T07:04:25.711Z,524.00
2024-03-28T07:05:25.736Z,523.00
2024-03-28T07:06:25.779Z,521.00
2024-03-28T07:07:25.838Z,521.00
2024-03-28T07:08:25.844Z,523.00
2024-03-28T07:09:25.884Z,522.00
2024-03-28T07:10:25.982Z,521.00
2024-03-28T07:11:25.969Z,521.00
2024-03-28T07:12:26.036Z,519.00
2024-03-28T07:13:26.073Z,519.00
2024-03-28T07:14:26.091Z,520.00
2024-03-28T07:15:26.130Z,517.00
2024-03-28T07:16:26.179Z,513.00
2024-03-28T07:17:26.292Z,512.00
2024-03-28T07:18:26.249Z,514.00
2024-03-28T07:19:26.392Z,514.00
2024-03-28T07:20:26.299Z,515.00
2024-03-28T07:21:26.346Z,516.00
2024-03-28T07:22:26.404Z,518.00
2024-03-28T07:23:26.403Z,517.00
2024-03-28T07:24:26.454Z,517.00
2024-03-28T07:25:26.504Z,517.00
2024-03-28T07:26:26.490Z,517.00
2024-03-28T07:27:26.529Z,517.00
2024-03-28T07:28:26.585Z,518.00
2024-03-28T07:29:26.593Z,517.00
2024-03-28T07:30:26.631Z,517.00
2024-03-28T07:31:26.694Z,516.00
2024-03-28T07:32:26.677Z,514.00
2024-03-28T07:33:26.703Z,512.00
2024-03-28T07:34:26.763Z,511.00
2024-03-28T07:35:28.944Z,510.00
2024-03-28T07:36:26.823Z,511.00
2024-03-28T07:37:26.901Z,510.00
2024-03-28T07:38:26.907Z,509.00
2024-03-28T07:39:26.949Z,508.00
2024-03-28T07:40:26.998Z,510.00
2024-03-28T07:41:27.024Z,512.00
2024-03-28T07:42:27.069Z,511.00
2024-03-28T07:43:27.129Z,510.00
2024-03-28T07:44:27.151Z,511.00
2024-03-28T07:45:27.193Z,512.00
2024-03-28T07:46:27.199Z,513.00
2024-03-28T07:47:27.292Z,513.00
2024-03-28T07:48:27.286Z,513.00
2024-03-28T07:49:27.324Z,515.00
2024-03-28T07:50:27.371Z,514.00
2024-03-28T07:51:27.381Z,512.00
2024-03-28T07:52:27.441Z,511.00
2024-03-28T07:53:27.459Z,512.00
2024-03-28T07:54:27.490Z,513.00
2024-03-28T07:55:27.545Z,514.00
2024-03-28T07:56:27.574Z,511.00
2024-03-28T07:57:27.601Z,515.00
2024-03-28T07:58:27.626Z,515.00
2024-03-28T07:59:27.591Z,517.00
2024-03-28T08:00:27.595Z,518.00
2024-03-28T08:01:27.583Z,519.00
2024-03-28T08:02:27.588Z,520.00
2024-03-28T08:03:27.564Z,519.00
2024-03-28T08:04:27.595Z,516.00
2024-03-28T08:05:27.555Z,516.00
2024-03-28T08:06:27.538Z,517.00
2024-03-28T08:07:27.552Z,519.00
2024-03-28T08:08:27.543Z,520.00
2024-03-28T08:09:27.567Z,520.00
2024-03-28T08:10:27.636Z,521.00
2024-03-28T08:11:27.646Z,521.00
2024-03-28T08:12:27.669Z,521.00
2024-03-28T08:13:27.735Z,525.00
2024-03-28T08:14:27.733Z,523.00
2024-03-28T08:15:27.791Z,522.00
2024-03-28T08:16:27.838Z,521.00
2024-03-28T08:17:27.897Z,520.00
2024-03-28T08:18:27.893Z,519.00
2024-03-28T08:19:27.964Z,520.00
2024-03-28T08:20:27.973Z,520.00
2024-03-28T08:21:28.000Z,522.00
2024-03-28T08:22:28.074Z,522.00
2024-03-28T08:23:28.072Z,521.00
2024-03-28T08:24:28.098Z,521.00
2024-03-28T08:25:28.166Z,524.00
2024-03-28T08:26:28.200Z,523.00
2024-03-28T08:27:28.212Z,521.00
2024-03-28T08:28:28.264Z,523.00
2024-03-28T08:29:28.266Z,523.00
2024-03-28T08:30:28.888Z,524.00
2024-03-28T08:31:28.372Z,523.00
2024-03-28T08:32:28.426Z,522.00
2024-03-28T08:33:28.427Z,522.00
2024-03-28T08:34:28.470Z,524.00
2024-03-28T08:35:28.511Z,522.00
2024-03-28T08:36:28.544Z,521.00
2024-03-28T08:37:28.599Z,521.00
2024-03-28T08:38:28.627Z,524.00
2024-03-28T08:39:28.671Z,523.00
2024-03-28T08:40:28.716Z,523.00
2024-03-28T08:41:28.763Z,524.00
2024-03-28T08:42:28.799Z,525.00
2024-03-28T08:43:28.817Z,524.00
2024-03-28T08:44:28.887Z,526.00
2024-03-28T08:45:28.909Z,529.00
2024-03-28T08:46:28.935Z,531.00
2024-03-28T08:47:29.043Z,529.00
2024-03-28T08:48:28.969Z,528.00
2024-03-28T08:49:28.990Z,527.00
2024-03-28T08:50:28.996Z,529.00
2024-03-28T08:51:28.961Z,528.00
2024-03-28T08:52:28.993Z,529.00
2024-03-28T08:53:28.958Z,529.00
2024-03-28T08:54:28.956Z,530.00
2024-03-28T08:55:28.968Z,531.00
2024-03-28T08:56:30.678Z,532.00
2024-03-28T08:57:29.249Z,534.00
2024-03-28T08:58:29.228Z,534.00
2024-03-28T08:59:29.116Z,533.00
2024-03-28T09:00:29.111Z,529.00
2024-03-28T09:01:28.948Z,528.00
2024-03-28T09:02:28.951Z,530.00
2024-03-28T09:03:28.909Z,532.00
2024-03-28T09:04:28.902Z,530.00
2024-03-28T09:05:28.892Z,529.00
2024-03-28T09:06:28.906Z,529.00
2024-03-28T09:07:28.918Z,530.00
2024-03-28T09:08:28.891Z,532.00
2024-03-28T09:09:28.948Z,533.00
2024-03-28T09:10:28.891Z,535.00
2024-03-28T09:11:28.892Z,534.00
2024-03-28T09:12:28.902Z,530.00
2024-03-28T09:13:28.929Z,529.00
2024-03-28T09:14:28.909Z,528.00
2024-03-28T09:15:28.978Z,530.00
2024-03-28T09:16:28.994Z,530.00
2024-03-28T09:17:29.029Z,532.00
2024-03-28T09:18:29.098Z,531.00
2024-03-28T09:19:29.158Z,530.00
2024-03-28T09:20:29.115Z,528.00
2024-03-28T09:21:29.227Z,524.00
2024-03-28T09:22:29.201Z,524.00
2024-03-28T09:23:29.280Z,524.00
2024-03-28T09:24:29.299Z,525.00
2024-03-28T09:25:29.311Z,526.00
2024-03-28T09:26:29.333Z,527.00
2024-03-28T09:27:29.386Z,526.00
2024-03-28T09:28:29.430Z,525.00
2024-03-28T09:29:29.447Z,524.00
2024-03-28T09:30:29.506Z,525.00
2024-03-28T09:31:29.525Z,523.00
2024-03-28T09:32:30.187Z,523.00
2024-03-28T09:33:29.630Z,524.00
2024-03-28T09:34:29.621Z,523.00
2024-03-28T09:35:29.632Z,523.00
2024-03-28T09:36:29.698Z,522.00
2024-03-28T09:37:29.603Z,522.00
2024-03-28T09:38:29.599Z,521.00
2024-03-28T09:39:29.575Z,522.00
2024-03-28T09:40:29.678Z,522.00
2024-03-28T09:41:29.604Z,521.00
2024-03-28T09:42:29.589Z,521.00
2024-03-28T09:43:29.628Z,522.00
2024-03-28T09:44:29.586Z,524.00
2024-03-28T09:45:29.595Z,527.00
2024-03-28T09:46:29.666Z,530.00
2024-03-28T09:47:29.634Z,531.00
2024-03-28T09:48:29.595Z,532.00
2024-03-28T09:49:29.653Z,532.00
2024-03-28T09:50:29.624Z,532.00
2024-03-28T09:51:29.697Z,533.00
2024-03-28T09:52:29.742Z,533.00
2024-03-28T09:53:29.765Z,533.00
2024-03-28T09:54:29.768Z,531.00
2024-03-28T09:55:29.908Z,526.00
2024-03-28T09:56:29.827Z,525.00
2024-03-28T09:57:29.875Z,526.00
2024-03-28T09:58:29.908Z,525.00
2024-03-28T09:59:29.932Z,522.00
2024-03-28T10:00:30.010Z,522.00
2024-03-28T10:01:30.013Z,522.00
2024-03-28T10:02:30.077Z,523.00
2024-03-28T10:03:30.081Z,524.00
2024-03-28T10:04:30.091Z,524.00
2024-03-28T10:05:30.112Z,523.00
2024-03-28T10:06:30.133Z,519.00
2024-03-28T10:07:30.168Z,518.00
2024-03-28T10:08:30.218Z,521.00
2024-03-28T10:09:30.220Z,523.00
2024-03-28T10:10:30.262Z,524.00
2024-03-28T10:11:30.273Z,523.00
2024-03-28T10:12:30.319Z,523.00
2024-03-28T10:13:30.314Z,523.00
2024-03-28T10:14:30.406Z,523.00
2024-03-28T10:15:30.553Z,519.00
2024-03-28T10:16:30.538Z,518.00
2024-03-28T10:17:30.605Z,520.00
2024-03-28T10:18:30.543Z,519.00
2024-03-28T10:19:30.554Z,519.00
2024-03-28T10:20:30.547Z,521.00
2024-03-28T10:21:30.547Z,522.00
2024-03-28T10:22:30.580Z,520.00
2024-03-28T10:23:30.561Z,522.00
2024-03-28T10:24:30.555Z,524.00
2024-03-28T10:25:30.596Z,530.00
2024-03-28T10:26:30.563Z,530.00
2024-03-28T10:27:30.564Z,529.00
2024-03-28T10:28:30.578Z,527.00
2024-03-28T10:29:30.560Z,529.00
2024-03-28T10:30:30.572Z,526.00
2024-03-28T10:31:30.550Z,524.00
2024-03-28T10:32:30.549Z,524.00
2024-03-28T10:33:30.591Z,522.00
2024-03-28T10:34:30.574Z,522.00
2024-03-28T10:35:30.548Z,523.00
2024-03-28T10:36:30.551Z,522.00
2024-03-28T10:37:40.464Z,521.00
2024-03-28T10:38:31.576Z,520.00
2024-03-28T10:39:30.548Z,520.00
2024-03-28T10:40:30.565Z,521.00
2024-03-28T10:41:30.563Z,523.00
2024-03-28T10:42:30.553Z,523.00
2024-03-28T10:43:30.568Z,522.00
2024-03-28T10:44:30.552Z,520.00
2024-03-28T10:45:30.565Z,518.00
2024-03-28T10:46:30.558Z,517.00
2024-03-28T10:47:30.557Z,518.00
2024-03-28T10:48:30.551Z,519.00
2024-03-28T10:49:30.535Z,520.00
2024-03-28T10:50:30.543Z,523.00
2024-03-28T10:51:30.534Z,520.00
2024-03-28T10:52:30.536Z,521.00
2024-03-28T10:53:30.559Z,524.00
2024-03-28T10:54:30.535Z,525.00
2024-03-28T10:55:32.756Z,524.00
2024-03-28T10:56:30.527Z,525.00
2024-03-28T10:57:30.516Z,526.00
2024-03-28T10:58:30.524Z,525.00
2024-03-28T10:59:30.508Z,523.00
2024-03-28T11:00:30.547Z,523.00
2024-03-28T11:01:32.850Z,525.00
2024-03-28T11:02:30.654Z,524.00
2024-03-28T11:03:30.762Z,525.00
2024-03-28T11:04:30.864Z,527.00
2024-03-28T11:05:30.950Z,530.00
2024-03-28T11:06:30.940Z,530.00
2024-03-28T11:07:30.957Z,532.00
2024-03-28T11:08:30.956Z,534.00
2024-03-28T11:09:30.958Z,535.00
2024-03-28T11:10:30.974Z,533.00
2024-03-28T11:11:31.072Z,532.00
2024-03-28T11:12:31.071Z,531.00
2024-03-28T11:13:31.098Z,530.00
2024-03-28T11:14:31.073Z,531.00
2024-03-28T11:15:31.072Z,533.00
2024-03-28T11:16:31.061Z,533.00
2024-03-28T11:17:31.060Z,533.00
2024-03-28T11:18:31.066Z,535.00
2024-03-28T11:19:33.541Z,531.00
2024-03-28T11:20:31.039Z,530.00
2024-03-28T11:21:31.055Z,529.00
2024-03-28T11:22:31.038Z,525.00
2024-03-28T11:23:31.049Z,522.00
2024-03-28T11:24:31.045Z,523.00
2024-03-28T11:25:31.065Z,526.00
2024-03-28T11:26:31.027Z,525.00
2024-03-28T11:27:31.041Z,525.00
2024-03-28T11:28:31.019Z,526.00
2024-03-28T11:29:31.005Z,528.00
2024-03-28T11:30:30.993Z,528.00
2024-03-28T11:31:30.999Z,526.00
2024-03-28T11:32:30.983Z,524.00
2024-03-28T11:33:30.963Z,525.00
2024-03-28T11:34:30.968Z,523.00
2024-03-28T11:35:30.955Z,524.00
2024-03-28T11:36:30.950Z,524.00
2024-03-28T11:37:30.970Z,525.00
2024-03-28T11:38:30.950Z,525.00
2024-03-28T11:39:30.932Z,524.00
2024-03-28T11:40:30.945Z,522.00
2024-03-28T11:41:30.968Z,523.00
2024-03-28T11:42:35.941Z,522.00
2024-03-28T11:43:31.927Z,521.00
2024-03-28T11:44:30.924Z,522.00
2024-03-28T11:45:30.922Z,519.00
2024-03-28T11:46:30.932Z,517.00
2024-03-28T11:47:33.115Z,519.00
2024-03-28T11:48:30.929Z,518.00
2024-03-28T11:49:30.915Z,520.00
2024-03-28T11:50:31.642Z,520.00
2024-03-28T11:51:30.945Z,520.00
2024-03-28T11:52:30.906Z,520.00
2024-03-28T11:53:30.900Z,523.00
2024-03-28T11:54:30.897Z,523.00
2024-03-28T11:55:30.893Z,521.00
2024-03-28T11:56:32.339Z,524.00
2024-03-28T11:57:30.890Z,524.00
2024-03-28T11:58:30.891Z,524.00
2024-03-28T11:59:30.900Z,523.00
2024-03-28T12:00:30.895Z,523.00
2024-03-28T12:01:30.906Z,526.00
2024-03-28T12:02:30.883Z,525.00
2024-03-28T12:03:30.917Z,522.00
2024-03-28T12:04:30.882Z,522.00
2024-03-28T12:05:30.878Z,522.00
2024-03-28T12:06:30.859Z,523.00
2024-03-28T12:07:30.852Z,523.00
2024-03-28T12:08:35.146Z,523.00
2024-03-28T12:09:31.878Z,522.00
2024-03-28T12:10:30.894Z,522.00
2024-03-28T12:11:30.864Z,521.00
2024-03-28T12:12:30.863Z,526.00
2024-03-28T12:13:30.838Z,530.00
2024-03-28T12:14:30.833Z,527.00
2024-03-28T12:15:30.827Z,526.00
2024-03-28T12:16:30.827Z,530.00
2024-03-28T12:17:30.806Z,531.00
2024-03-28T12:18:30.825Z,533.00
2024-03-28T12:19:30.800Z,530.00
2024-03-28T12:20:30.821Z,529.00
2024-03-28T12:21:30.795Z,528.00
2024-03-28T12:22:30.802Z,528.00
2024-03-28T12:23:30.784Z,527.00
2024-03-28T12:24:30.785Z,528.00
2024-03-28T12:25:30.780Z,527.00
2024-03-28T12:26:32.766Z,525.00
2024-03-28T12:27:30.792Z,526.00
2024-03-28T12:28:30.762Z,526.00